sensor_id;sensor_type;location;lat;lon;timestamp;temperature;humidity
6556;DHT22;3311;48.32423000;14.29074500;2023-03-19T00:02:17;12.10;51.70
6556;DHT22;3311;48.32423000;14.29074500;2023-03-19T00:04:44;12.00;52.00
6556;DHT22;3311;48.32423000;14.29074500;2023-03-19T00:07:12;12.10;52.10
6556;DHT22;3311;48.32423000;14.29074500;2023-03-19T00:09:40;12.10;52.00
6556;DHT22;3311;48.32423000;14.29074500;2023-03-19T00:12:08;12.00;51.80
6556;DHT22;3311;48.32423000;14.29074500;2023-03-19T00:14:37;12.10;51.80
6556;DHT22;3311;48.32423000;14.29074500;2023-03-19T00:17:05;12.00;51.70
6556;DHT22;3311;48.32423000;14.29074500;2023-03-19T00:19:33;12.10;51.80
6556;DHT22;3311;48.32423000;14.29074500;2023-03-19T00:22:00;12.10;51.80
6556;DHT22;3311;48.32423000;14.29074500;2023-03-19T00:24:27;12.00;51.60
6556;DHT22;3311;48.32423000;14.29074500;2023-03-19T00:26:55;12.10;51.80
6556;DHT22;3311;48.32423000;14.29074500;2023-03-19T00:29:22;12.00;51.70
6556;DHT22;3311;48.32423000;14.29074500;2023-03-19T00:31:50;12.00;51.80
6556;DHT22;3311;48.32423000;14.29074500;2023-03-19T00:34:19;11.90;51.80
6556;DHT22;3311;48.32423000;14.29074500;2023-03-19T00:36:46;11.90;52.00
6556;DHT22;3311;48.32423000;14.29074500;2023-03-19T00:39:13;11.90;52.20
6556;DHT22;3311;48.32423000;14.29074500;2023-03-19T00:41:41;12.00;51.60
6556;DHT22;3311;48.32423000;14.29074500;2023-03-19T00:44:15;11.90;51.40
6556;DHT22;3311;48.32423000;14.29074500;2023-03-19T00:46:44;11.90;51.70
6556;DHT22;3311;48.32423000;14.29074500;2023-03-19T00:49:11;11.90;51.40
6556;DHT22;3311;48.32423000;14.29074500;2023-03-19T00:51:40;11.90;51.60
6556;DHT22;3311;48.32423000;14.29074500;2023-03-19T00:54:10;11.90;51.40
6556;DHT22;3311;48.32423000;14.29074500;2023-03-19T00:56:37;11.90;51.40
6556;DHT22;3311;48.32423000;14.29074500;2023-03-19T00:59:05;11.80;51.50
6556;DHT22;3311;48.32423000;14.29074500;2023-03-19T01:01:33;11.80;51.60
6556;DHT22;3311;48.32423000;14.29074500;2023-03-19T01:04:00;11.90;51.70
6556;DHT22;3311;48.32423000;14.29074500;2023-03-19T01:06:28;11.80;51.60
6556;DHT22;3311;48.32423000;14.29074500;2023-03-19T01:08:56;11.70;51.80
6556;DHT22;3311;48.32423000;14.29074500;2023-03-19T01:11:24;11.60;51.80
6556;DHT22;3311;48.32423000;14.29074500;2023-03-19T01:13:51;11.60;52.00
6556;DHT22;3311;48.32423000;14.29074500;2023-03-19T01:16:18;11.70;52.00
6556;DHT22;3311;48.32423000;14.29074500;2023-03-19T01:18:46;11.70;51.80
6556;DHT22;3311;48.32423000;14.29074500;2023-03-19T01:21:13;11.80;51.60
6556;DHT22;3311;48.32423000;14.29074500;2023-03-19T01:23:40;11.80;51.60
6556;DHT22;3311;48.32423000;14.29074500;2023-03-19T01:26:09;11.70;51.70
6556;DHT22;3311;48.32423000;14.29074500;2023-03-19T01:28:36;11.70;51.60
6556;DHT22;3311;48.32423000;14.29074500;2023-03-19T01:31:06;11.70;51.80
6556;DHT22;3311;48.32423000;14.29074500;2023-03-19T01:33:35;11.70;51.80
6556;DHT22;3311;48.32423000;14.29074500;2023-03-19T01:36:04;11.80;51.80
6556;DHT22;3311;48.32423000;14.29074500;2023-03-19T01:38:33;11.70;51.90
6556;DHT22;3311;48.32423000;14.29074500;2023-03-19T01:41:01;11.70;51.90
6556;DHT22;3311;48.32423000;14.29074500;2023-03-19T01:43:30;11.70;51.90
6556;DHT22;3311;48.32423000;14.29074500;2023-03-19T01:46:00;11.70;51.90
6556;DHT22;3311;48.32423000;14.29074500;2023-03-19T01:48:35;11.60;51.70
6556;DHT22;3311;48.32423000;14.29074500;2023-03-19T01:51:04;11.70;51.90
6556;DHT22;3311;48.32423000;14.29074500;2023-03-19T01:53:35;11.60;52.10
6556;DHT22;3311;48.32423000;14.29074500;2023-03-19T01:56:08;11.60;52.10
6556;DHT22;3311;48.32423000;14.29074500;2023-03-19T01:58:39;11.60;52.10
6556;DHT22;3311;48.32423000;14.29074500;2023-03-19T02:01:07;11.60;52.20
6556;DHT22;3311;48.32423000;14.29074500;2023-03-19T02:03:37;11.60;52.20
6556;DHT22;3311;48.32423000;14.29074500;2023-03-19T02:06:05;11.60;52.00
6556;DHT22;3311;48.32423000;14.29074500;2023-03-19T02:08:35;11.50;52.10
6556;DHT22;3311;48.32423000;14.29074500;2023-03-19T02:11:04;11.50;52.30
6556;DHT22;3311;48.32423000;14.29074500;2023-03-19T02:13:33;11.40;52.20
6556;DHT22;3311;48.32423000;14.29074500;2023-03-19T02:16:02;11.50;52.30
6556;DHT22;3311;48.32423000;14.29074500;2023-03-19T02:18:30;11.60;52.20
6556;DHT22;3311;48.32423000;14.29074500;2023-03-19T02:21:01;11.50;51.90
6556;DHT22;3311;48.32423000;14.29074500;2023-03-19T02:23:35;11.60;52.10
6556;DHT22;3311;48.32423000;14.29074500;2023-03-19T02:26:06;11.50;52.10
6556;DHT22;3311;48.32423000;14.29074500;2023-03-19T02:28:38;11.50;52.10
6556;DHT22;3311;48.32423000;14.29074500;2023-03-19T02:31:07;11.40;52.00
6556;DHT22;3311;48.32423000;14.29074500;2023-03-19T02:33:35;11.40;52.00
6556;DHT22;3311;48.32423000;14.29074500;2023-03-19T02:36:05;11.40;52.20
6556;DHT22;3311;48.32423000;14.29074500;2023-03-19T02:38:35;11.50;52.00
6556;DHT22;3311;48.32423000;14.29074500;2023-03-19T02:41:07;11.40;51.70
6556;DHT22;3311;48.32423000;14.29074500;2023-03-19T02:43:37;11.40;51.90
6556;DHT22;3311;48.32423000;14.29074500;2023-03-19T02:46:07;11.50;52.00
6556;DHT22;3311;48.32423000;14.29074500;2023-03-19T02:48:35;11.50;52.00
6556;DHT22;3311;48.32423000;14.29074500;2023-03-19T02:51:03;11.40;52.10
6556;DHT22;3311;48.32423000;14.29074500;2023-03-19T02:53:31;11.30;52.30
6556;DHT22;3311;48.32423000;14.29074500;2023-03-19T02:55:59;11.30;52.50
6556;DHT22;3311;48.32423000;14.29074500;2023-03-19T02:58:28;11.30;52.50
6556;DHT22;3311;48.32423000;14.29074500;2023-03-19T03:00:56;11.20;52.60
6556;DHT22;3311;48.32423000;14.29074500;2023-03-19T03:03:23;11.30;52.60
6556;DHT22;3311;48.32423000;14.29074500;2023-03-19T03:05:50;11.30;52.50
6556;DHT22;3311;48.32423000;14.29074500;2023-03-19T03:08:17;11.30;52.40
6556;DHT22;3311;48.32423000;14.29074500;2023-03-19T03:10:45;11.30;52.40
6556;DHT22;3311;48.32423000;14.29074500;2023-03-19T03:13:12;11.40;52.30
6556;DHT22;3311;48.32423000;14.29074500;2023-03-19T03:15:41;11.30;52.30
6556;DHT22;3311;48.32423000;14.29074500;2023-03-19T03:18:08;11.40;52.20
6556;DHT22;3311;48.32423000;14.29074500;2023-03-19T03:20:36;11.20;52.10
6556;DHT22;3311;48.32423000;14.29074500;2023-03-19T03:23:03;11.20;52.40
6556;DHT22;3311;48.32423000;14.29074500;2023-03-19T03:25:30;11.30;52.30
6556;DHT22;3311;48.32423000;14.29074500;2023-03-19T03:27:58;11.20;52.30
6556;DHT22;3311;48.32423000;14.29074500;2023-03-19T03:30:25;11.30;52.50
6556;DHT22;3311;48.32423000;14.29074500;2023-03-19T03:32:54;11.20;52.40
6556;DHT22;3311;48.32423000;14.29074500;2023-03-19T03:35:22;11.10;52.60
6556;DHT22;3311;48.32423000;14.29074500;2023-03-19T03:37:50;11.10;52.70
6556;DHT22;3311;48.32423000;14.29074500;2023-03-19T03:40:18;11.10;52.60
6556;DHT22;3311;48.32423000;14.29074500;2023-03-19T03:42:46;11.10;52.50
6556;DHT22;3311;48.32423000;14.29074500;2023-03-19T03:45:13;11.10;52.60
6556;DHT22;3311;48.32423000;14.29074500;2023-03-19T03:47:40;11.10;52.40
6556;DHT22;3311;48.32423000;14.29074500;2023-03-19T03:50:10;11.10;52.60
6556;DHT22;3311;48.32423000;14.29074500;2023-03-19T03:52:38;11.10;52.50
6556;DHT22;3311;48.32423000;14.29074500;2023-03-19T03:55:06;11.20;52.50
6556;DHT22;3311;48.32423000;14.29074500;2023-03-19T03:57:35;11.10;52.50
6556;DHT22;3311;48.32423000;14.29074500;2023-03-19T04:00:03;11.20;52.80
6556;DHT22;3311;48.32423000;14.29074500;2023-03-19T04:02:30;11.10;52.50
6556;DHT22;3311;48.32423000;14.29074500;2023-03-19T04:04:58;11.10;52.60
6556;DHT22;3311;48.32423000;14.29074500;2023-03-19T04:07:26;11.10;52.60
6556;DHT22;3311;48.32423000;14.29074500;2023-03-19T04:09:56;11.00;52.70
6556;DHT22;3311;48.32423000;14.29074500;2023-03-19T04:12:24;10.90;52.90
6556;DHT22;3311;48.32423000;14.29074500;2023-03-19T04:14:51;10.90;52.90
6556;DHT22;3311;48.32423000;14.29074500;2023-03-19T04:17:19;10.90;52.90
6556;DHT22;3311;48.32423000;14.29074500;2023-03-19T04:19:47;10.90;53.00
6556;DHT22;3311;48.32423000;14.29074500;2023-03-19T04:22:14;10.90;52.90
6556;DHT22;3311;48.32423000;14.29074500;2023-03-19T04:24:43;10.90;53.50
6556;DHT22;3311;48.32423000;14.29074500;2023-03-19T04:27:11;11.00;53.10
6556;DHT22;3311;48.32423000;14.29074500;2023-03-19T04:29:38;11.00;53.00
6556;DHT22;3311;48.32423000;14.29074500;2023-03-19T04:32:06;10.90;53.00
6556;DHT22;3311;48.32423000;14.29074500;2023-03-19T04:34:33;10.90;53.00
6556;DHT22;3311;48.32423000;14.29074500;2023-03-19T04:37:01;10.90;53.00
6556;DHT22;3311;48.32423000;14.29074500;2023-03-19T04:39:28;10.90;52.90
6556;DHT22;3311;48.32423000;14.29074500;2023-03-19T04:41:58;11.00;52.80
6556;DHT22;3311;48.32423000;14.29074500;2023-03-19T04:44:25;11.00;52.70
6556;DHT22;3311;48.32423000;14.29074500;2023-03-19T04:46:52;11.00;52.70
6556;DHT22;3311;48.32423000;14.29074500;2023-03-19T04:49:20;10.90;52.70
6556;DHT22;3311;48.32423000;14.29074500;2023-03-19T04:51:47;10.80;52.70
6556;DHT22;3311;48.32423000;14.29074500;2023-03-19T04:54:14;10.90;52.80
6556;DHT22;3311;48.32423000;14.29074500;2023-03-19T04:56:42;10.90;52.90
6556;DHT22;3311;48.32423000;14.29074500;2023-03-19T04:59:10;10.90;52.70
6556;DHT22;3311;48.32423000;14.29074500;2023-03-19T05:01:38;10.90;52.70
6556;DHT22;3311;48.32423000;14.29074500;2023-03-19T05:04:05;10.80;52.90
6556;DHT22;3311;48.32423000;14.29074500;2023-03-19T05:06:33;10.80;53.00
6556;DHT22;3311;48.32423000;14.29074500;2023-03-19T05:09:01;10.80;52.80
6556;DHT22;3311;48.32423000;14.29074500;2023-03-19T05:11:28;10.90;52.70
6556;DHT22;3311;48.32423000;14.29074500;2023-03-19T05:13:55;10.80;52.70
6556;DHT22;3311;48.32423000;14.29074500;2023-03-19T05:16:24;10.90;52.60
6556;DHT22;3311;48.32423000;14.29074500;2023-03-19T05:18:58;11.00;52.40
6556;DHT22;3311;48.32423000;14.29074500;2023-03-19T05:21:25;10.90;52.40
6556;DHT22;3311;48.32423000;14.29074500;2023-03-19T05:23:52;10.70;52.80
6556;DHT22;3311;48.32423000;14.29074500;2023-03-19T05:26:22;10.70;53.10
6556;DHT22;3311;48.32423000;14.29074500;2023-03-19T05:28:49;10.70;53.30
6556;DHT22;3311;48.32423000;14.29074500;2023-03-19T05:31:16;10.60;53.40
6556;DHT22;3311;48.32423000;14.29074500;2023-03-19T05:33:45;10.70;53.60
6556;DHT22;3311;48.32423000;14.29074500;2023-03-19T05:36:12;10.70;53.60
6556;DHT22;3311;48.32423000;14.29074500;2023-03-19T05:38:40;10.70;53.80
6556;DHT22;3311;48.32423000;14.29074500;2023-03-19T05:41:07;10.80;53.80
6556;DHT22;3311;48.32423000;14.29074500;2023-03-19T05:43:34;10.90;53.40
6556;DHT22;3311;48.32423000;14.29074500;2023-03-19T05:46:02;10.90;53.60
6556;DHT22;3311;48.32423000;14.29074500;2023-03-19T05:48:29;11.00;53.60
6556;DHT22;3311;48.32423000;14.29074500;2023-03-19T05:50:58;11.00;53.60
6556;DHT22;3311;48.32423000;14.29074500;2023-03-19T05:53:25;11.00;53.70
6556;DHT22;3311;48.32423000;14.29074500;2023-03-19T05:55:52;11.00;54.30
6556;DHT22;3311;48.32423000;14.29074500;2023-03-19T05:58:19;11.00;54.70
6556;DHT22;3311;48.32423000;14.29074500;2023-03-19T06:00:46;11.00;54.70
6556;DHT22;3311;48.32423000;14.29074500;2023-03-19T06:03:15;10.90;54.60
6556;DHT22;3311;48.32423000;14.29074500;2023-03-19T06:05:43;10.90;54.90
6556;DHT22;3311;48.32423000;14.29074500;2023-03-19T06:08:11;10.90;55.00
6556;DHT22;3311;48.32423000;14.29074500;2023-03-19T06:10:39;10.90;55.30
6556;DHT22;3311;48.32423000;14.29074500;2023-03-19T06:13:06;11.00;54.60
6556;DHT22;3311;48.32423000;14.29074500;2023-03-19T06:15:33;11.00;54.90
6556;DHT22;3311;48.32423000;14.29074500;2023-03-19T06:18:00;11.00;54.70
6556;DHT22;3311;48.32423000;14.29074500;2023-03-19T06:20:28;11.00;54.80
6556;DHT22;3311;48.32423000;14.29074500;2023-03-19T06:22:55;11.10;54.60
6556;DHT22;3311;48.32423000;14.29074500;2023-03-19T06:25:23;11.30;54.30
6556;DHT22;3311;48.32423000;14.29074500;2023-03-19T06:27:51;11.50;54.00
6556;DHT22;3311;48.32423000;14.29074500;2023-03-19T06:30:18;11.70;53.60
6556;DHT22;3311;48.32423000;14.29074500;2023-03-19T06:32:45;11.90;53.30
6556;DHT22;3311;48.32423000;14.29074500;2023-03-19T06:35:12;12.00;52.90
6556;DHT22;3311;48.32423000;14.29074500;2023-03-19T06:37:39;12.10;52.70
6556;DHT22;3311;48.32423000;14.29074500;2023-03-19T06:40:08;12.10;52.60
6556;DHT22;3311;48.32423000;14.29074500;2023-03-19T06:42:37;12.20;52.60
6556;DHT22;3311;48.32423000;14.29074500;2023-03-19T06:45:06;12.20;52.70
6556;DHT22;3311;48.32423000;14.29074500;2023-03-19T06:47:33;12.20;53.00
6556;DHT22;3311;48.32423000;14.29074500;2023-03-19T06:50:01;12.10;53.00
6556;DHT22;3311;48.32423000;14.29074500;2023-03-19T06:52:29;12.40;52.60
6556;DHT22;3311;48.32423000;14.29074500;2023-03-19T06:54:56;12.60;52.00
6556;DHT22;3311;48.32423000;14.29074500;2023-03-19T06:57:23;12.80;51.30
6556;DHT22;3311;48.32423000;14.29074500;2023-03-19T06:59:52;13.00;50.90
6556;DHT22;3311;48.32423000;14.29074500;2023-03-19T07:02:19;13.10;50.70
6556;DHT22;3311;48.32423000;14.29074500;2023-03-19T07:04:46;13.20;50.30
6556;DHT22;3311;48.32423000;14.29074500;2023-03-19T07:07:14;13.30;50.20
6556;DHT22;3311;48.32423000;14.29074500;2023-03-19T07:09:41;13.40;50.00
6556;DHT22;3311;48.32423000;14.29074500;2023-03-19T07:12:08;13.50;49.90
6556;DHT22;3311;48.32423000;14.29074500;2023-03-19T07:14:36;13.60;49.80
6556;DHT22;3311;48.32423000;14.29074500;2023-03-19T07:17:04;13.60;49.70
6556;DHT22;3311;48.32423000;14.29074500;2023-03-19T07:19:32;13.70;49.50
6556;DHT22;3311;48.32423000;14.29074500;2023-03-19T07:21:59;13.80;49.50
6556;DHT22;3311;48.32423000;14.29074500;2023-03-19T07:24:26;13.80;49.20
6556;DHT22;3311;48.32423000;14.29074500;2023-03-19T07:26:53;13.90;49.10
6556;DHT22;3311;48.32423000;14.29074500;2023-03-19T07:29:22;14.00;48.60
6556;DHT22;3311;48.32423000;14.29074500;2023-03-19T07:31:49;14.00;48.40
6556;DHT22;3311;48.32423000;14.29074500;2023-03-19T07:34:17;14.10;48.10
6556;DHT22;3311;48.32423000;14.29074500;2023-03-19T07:36:44;14.00;47.80
6556;DHT22;3311;48.32423000;14.29074500;2023-03-19T07:39:12;14.00;47.80
6556;DHT22;3311;48.32423000;14.29074500;2023-03-19T07:41:40;13.90;47.90
6556;DHT22;3311;48.32423000;14.29074500;2023-03-19T07:44:09;13.90;47.90
6556;DHT22;3311;48.32423000;14.29074500;2023-03-19T07:46:36;13.80;47.60
6556;DHT22;3311;48.32423000;14.29074500;2023-03-19T07:49:03;13.80;47.70
6556;DHT22;3311;48.32423000;14.29074500;2023-03-19T07:51:32;13.80;47.50
6556;DHT22;3311;48.32423000;14.29074500;2023-03-19T07:54:00;13.80;47.50
6556;DHT22;3311;48.32423000;14.29074500;2023-03-19T07:56:27;13.80;47.30
6556;DHT22;3311;48.32423000;14.29074500;2023-03-19T07:58:54;13.70;46.90
6556;DHT22;3311;48.32423000;14.29074500;2023-03-19T08:01:22;13.60;47.00
6556;DHT22;3311;48.32423000;14.29074500;2023-03-19T08:03:49;13.70;47.30
6556;DHT22;3311;48.32423000;14.29074500;2023-03-19T08:06:17;13.80;47.10
6556;DHT22;3311;48.32423000;14.29074500;2023-03-19T08:08:45;13.90;47.00
6556;DHT22;3311;48.32423000;14.29074500;2023-03-19T08:11:13;14.00;46.40
6556;DHT22;3311;48.32423000;14.29074500;2023-03-19T08:13:41;14.10;46.00
6556;DHT22;3311;48.32423000;14.29074500;2023-03-19T08:16:09;14.20;46.00
6556;DHT22;3311;48.32423000;14.29074500;2023-03-19T08:18:36;14.30;45.90
6556;DHT22;3311;48.32423000;14.29074500;2023-03-19T08:21:04;14.40;45.60
6556;DHT22;3311;48.32423000;14.29074500;2023-03-19T08:23:31;14.40;45.70
6556;DHT22;3311;48.32423000;14.29074500;2023-03-19T08:26:00;14.40;45.20
6556;DHT22;3311;48.32423000;14.29074500;2023-03-19T08:28:27;14.50;45.30
6556;DHT22;3311;48.32423000;14.29074500;2023-03-19T08:30:54;14.60;45.30
6556;DHT22;3311;48.32423000;14.29074500;2023-03-19T08:33:22;14.60;44.70
6556;DHT22;3311;48.32423000;14.29074500;2023-03-19T08:35:49;14.70;45.10
6556;DHT22;3311;48.32423000;14.29074500;2023-03-19T08:38:16;14.70;44.80
6556;DHT22;3311;48.32423000;14.29074500;2023-03-19T08:40:44;14.80;44.70
6556;DHT22;3311;48.32423000;14.29074500;2023-03-19T08:43:13;14.80;45.00
6556;DHT22;3311;48.32423000;14.29074500;2023-03-19T08:45:41;14.80;44.50
6556;DHT22;3311;48.32423000;14.29074500;2023-03-19T08:48:08;14.80;44.40
6556;DHT22;3311;48.32423000;14.29074500;2023-03-19T08:50:35;14.80;44.40
6556;DHT22;3311;48.32423000;14.29074500;2023-03-19T08:53:02;14.80;44.00
6556;DHT22;3311;48.32423000;14.29074500;2023-03-19T08:55:30;14.90;44.30
6556;DHT22;3311;48.32423000;14.29074500;2023-03-19T08:57:57;14.80;44.10
6556;DHT22;3311;48.32423000;14.29074500;2023-03-19T09:00:26;14.90;44.00
6556;DHT22;3311;48.32423000;14.29074500;2023-03-19T09:02:53;14.90;44.00
6556;DHT22;3311;48.32423000;14.29074500;2023-03-19T09:05:20;14.90;44.10
6556;DHT22;3311;48.32423000;14.29074500;2023-03-19T09:07:49;15.00;44.00
6556;DHT22;3311;48.32423000;14.29074500;2023-03-19T09:10:17;15.00;43.70
6556;DHT22;3311;48.32423000;14.29074500;2023-03-19T09:12:44;15.00;43.80
6556;DHT22;3311;48.32423000;14.29074500;2023-03-19T09:15:12;15.00;43.80
6556;DHT22;3311;48.32423000;14.29074500;2023-03-19T09:17:41;15.00;43.80
6556;DHT22;3311;48.32423000;14.29074500;2023-03-19T09:20:09;15.00;43.80
6556;DHT22;3311;48.32423000;14.29074500;2023-03-19T09:22:37;15.10;44.00
6556;DHT22;3311;48.32423000;14.29074500;2023-03-19T09:25:06;15.10;44.00
6556;DHT22;3311;48.32423000;14.29074500;2023-03-19T09:27:33;15.10;43.50
6556;DHT22;3311;48.32423000;14.29074500;2023-03-19T09:30:00;15.10;43.60
6556;DHT22;3311;48.32423000;14.29074500;2023-03-19T09:32:28;15.10;43.70
6556;DHT22;3311;48.32423000;14.29074500;2023-03-19T09:34:57;15.10;43.50
6556;DHT22;3311;48.32423000;14.29074500;2023-03-19T09:37:24;15.10;43.40
6556;DHT22;3311;48.32423000;14.29074500;2023-03-19T09:39:51;15.20;43.30
6556;DHT22;3311;48.32423000;14.29074500;2023-03-19T09:42:30;15.20;43.20
6556;DHT22;3311;48.32423000;14.29074500;2023-03-19T09:45:04;15.10;43.20
6556;DHT22;3311;48.32423000;14.29074500;2023-03-19T09:47:38;15.10;43.20
6556;DHT22;3311;48.32423000;14.29074500;2023-03-19T09:50:13;15.10;43.00
6556;DHT22;3311;48.32423000;14.29074500;2023-03-19T09:52:45;15.00;43.30
6556;DHT22;3311;48.32423000;14.29074500;2023-03-19T09:55:27;15.00;43.00
6556;DHT22;3311;48.32423000;14.29074500;2023-03-19T09:57:58;15.00;43.20
6556;DHT22;3311;48.32423000;14.29074500;2023-03-19T10:00:31;14.90;43.30
6556;DHT22;3311;48.32423000;14.29074500;2023-03-19T10:03:04;14.90;43.30
6556;DHT22;3311;48.32423000;14.29074500;2023-03-19T10:05:43;14.90;43.30
6556;DHT22;3311;48.32423000;14.29074500;2023-03-19T10:08:36;14.90;43.50
6556;DHT22;3311;48.32423000;14.29074500;2023-03-19T10:11:25;15.00;43.60
6556;DHT22;3311;48.32423000;14.29074500;2023-03-19T10:14:06;15.00;43.40
6556;DHT22;3311;48.32423000;14.29074500;2023-03-19T10:16:40;15.00;43.30
6556;DHT22;3311;48.32423000;14.29074500;2023-03-19T10:19:10;15.10;43.50
6556;DHT22;3311;48.32423000;14.29074500;2023-03-19T10:21:45;15.10;43.50
6556;DHT22;3311;48.32423000;14.29074500;2023-03-19T10:24:30;15.20;43.50
6556;DHT22;3311;48.32423000;14.29074500;2023-03-19T10:27:00;15.10;43.20
6556;DHT22;3311;48.32423000;14.29074500;2023-03-19T10:29:33;15.20;43.30
6556;DHT22;3311;48.32423000;14.29074500;2023-03-19T10:32:06;15.10;43.40
6556;DHT22;3311;48.32423000;14.29074500;2023-03-19T10:34:41;15.10;43.50
6556;DHT22;3311;48.32423000;14.29074500;2023-03-19T10:37:16;15.10;43.30
6556;DHT22;3311;48.32423000;14.29074500;2023-03-19T10:39:47;15.10;43.30
6556;DHT22;3311;48.32423000;14.29074500;2023-03-19T10:42:35;15.10;43.50
6556;DHT22;3311;48.32423000;14.29074500;2023-03-19T10:45:18;15.10;43.50
6556;DHT22;3311;48.32423000;14.29074500;2023-03-19T10:47:47;15.10;43.40
6556;DHT22;3311;48.32423000;14.29074500;2023-03-19T10:50:15;15.10;43.40
6556;DHT22;3311;48.32423000;14.29074500;2023-03-19T10:52:49;15.00;43.50
6556;DHT22;3311;48.32423000;14.29074500;2023-03-19T10:55:23;15.00;43.60
6556;DHT22;3311;48.32423000;14.29074500;2023-03-19T10:57:55;15.00;43.50
6556;DHT22;3311;48.32423000;14.29074500;2023-03-19T11:00:24;15.00;43.40
6556;DHT22;3311;48.32423000;14.29074500;2023-03-19T11:02:56;15.00;43.50
6556;DHT22;3311;48.32423000;14.29074500;2023-03-19T11:05:26;15.00;43.50
6556;DHT22;3311;48.32423000;14.29074500;2023-03-19T11:07:57;15.00;43.50
6556;DHT22;3311;48.32423000;14.29074500;2023-03-19T11:10:27;15.00;43.60
6556;DHT22;3311;48.32423000;14.29074500;2023-03-19T11:12:56;15.00;43.50
6556;DHT22;3311;48.32423000;14.29074500;2023-03-19T11:15:31;15.00;43.60
6556;DHT22;3311;48.32423000;14.29074500;2023-03-19T11:18:05;15.00;43.50
6556;DHT22;3311;48.32423000;14.29074500;2023-03-19T11:20:35;15.10;43.80
6556;DHT22;3311;48.32423000;14.29074500;2023-03-19T11:23:10;15.00;43.60
6556;DHT22;3311;48.32423000;14.29074500;2023-03-19T11:25:39;15.10;43.90
6556;DHT22;3311;48.32423000;14.29074500;2023-03-19T11:28:10;13.40;42.40
6556;DHT22;3311;48.32423000;14.29074500;2023-03-19T11:30:46;15.10;43.90
6556;DHT22;3311;48.32423000;14.29074500;2023-03-19T11:36:12;15.10;44.00
6556;DHT22;3311;48.32423000;14.29074500;2023-03-19T11:38:50;15.10;44.20
6556;DHT22;3311;48.32423000;14.29074500;2023-03-19T11:41:33;15.10;44.10
6556;DHT22;3311;48.32423000;14.29074500;2023-03-19T11:44:05;15.10;44.20
6556;DHT22;3311;48.32423000;14.29074500;2023-03-19T11:46:40;15.10;44.20
6556;DHT22;3311;48.32423000;14.29074500;2023-03-19T11:49:33;15.10;44.40
6556;DHT22;3311;48.32423000;14.29074500;2023-03-19T11:52:11;15.20;44.50
6556;DHT22;3311;48.32423000;14.29074500;2023-03-19T11:54:48;15.20;44.50
6556;DHT22;3311;48.32423000;14.29074500;2023-03-19T11:57:26;15.20;44.50
6556;DHT22;3311;48.32423000;14.29074500;2023-03-19T12:00:07;15.20;44.50
6556;DHT22;3311;48.32423000;14.29074500;2023-03-19T12:02:54;15.20;44.60
6556;DHT22;3311;48.32423000;14.29074500;2023-03-19T12:05:31;15.20;44.70
6556;DHT22;3311;48.32423000;14.29074500;2023-03-19T12:08:09;15.20;44.80
6556;DHT22;3311;48.32423000;14.29074500;2023-03-19T12:10:59;15.20;44.80
6556;DHT22;3311;48.32423000;14.29074500;2023-03-19T12:13:43;15.20;44.90
6556;DHT22;3311;48.32423000;14.29074500;2023-03-19T12:16:19;15.30;44.90
6556;DHT22;3311;48.32423000;14.29074500;2023-03-19T12:19:05;15.30;45.00
6556;DHT22;3311;48.32423000;14.29074500;2023-03-19T12:21:46;15.30;45.20
6556;DHT22;3311;48.32423000;14.29074500;2023-03-19T12:24:23;15.30;45.40
6556;DHT22;3311;48.32423000;14.29074500;2023-03-19T12:27:05;15.30;45.50
6556;DHT22;3311;48.32423000;14.29074500;2023-03-19T12:29:45;15.30;45.60
6556;DHT22;3311;48.32423000;14.29074500;2023-03-19T12:32:24;15.30;45.60
6556;DHT22;3311;48.32423000;14.29074500;2023-03-19T12:34:55;15.30;45.60
6556;DHT22;3311;48.32423000;14.29074500;2023-03-19T12:37:28;15.30;45.60
6556;DHT22;3311;48.32423000;14.29074500;2023-03-19T12:40:06;15.30;45.60
6556;DHT22;3311;48.32423000;14.29074500;2023-03-19T12:42:41;15.30;45.50
6556;DHT22;3311;48.32423000;14.29074500;2023-03-19T12:45:21;15.30;45.50
6556;DHT22;3311;48.32423000;14.29074500;2023-03-19T12:47:53;15.30;45.60
6556;DHT22;3311;48.32423000;14.29074500;2023-03-19T12:50:23;15.30;46.20
6556;DHT22;3311;48.32423000;14.29074500;2023-03-19T12:52:54;15.30;46.10
6556;DHT22;3311;48.32423000;14.29074500;2023-03-19T12:55:30;15.40;46.30
6556;DHT22;3311;48.32423000;14.29074500;2023-03-19T12:58:06;15.40;46.70
6556;DHT22;3311;48.32423000;14.29074500;2023-03-19T13:00:41;15.40;46.90
6556;DHT22;3311;48.32423000;14.29074500;2023-03-19T13:03:14;15.40;47.10
6556;DHT22;3311;48.32423000;14.29074500;2023-03-19T13:05:46;15.40;47.10
6556;DHT22;3311;48.32423000;14.29074500;2023-03-19T13:08:18;15.40;47.90
6556;DHT22;3311;48.32423000;14.29074500;2023-03-19T13:10:48;15.40;47.60
6556;DHT22;3311;48.32423000;14.29074500;2023-03-19T13:13:28;15.40;47.50
6556;DHT22;3311;48.32423000;14.29074500;2023-03-19T13:16:02;15.40;48.40
6556;DHT22;3311;48.32423000;14.29074500;2023-03-19T13:18:36;15.40;48.40
6556;DHT22;3311;48.32423000;14.29074500;2023-03-19T13:21:19;15.40;48.60
6556;DHT22;3311;48.32423000;14.29074500;2023-03-19T13:23:50;15.40;48.20
6556;DHT22;3311;48.32423000;14.29074500;2023-03-19T13:26:26;15.40;48.20
6556;DHT22;3311;48.32423000;14.29074500;2023-03-19T13:28:59;15.40;48.30
6556;DHT22;3311;48.32423000;14.29074500;2023-03-19T13:31:32;15.40;48.50
6556;DHT22;3311;48.32423000;14.29074500;2023-03-19T13:34:02;15.40;48.40
6556;DHT22;3311;48.32423000;14.29074500;2023-03-19T13:36:35;15.40;48.60
6556;DHT22;3311;48.32423000;14.29074500;2023-03-19T13:39:11;15.40;48.80
6556;DHT22;3311;48.32423000;14.29074500;2023-03-19T13:41:51;15.40;48.80
6556;DHT22;3311;48.32423000;14.29074500;2023-03-19T13:44:31;15.40;49.30
6556;DHT22;3311;48.32423000;14.29074500;2023-03-19T13:47:01;15.40;49.30
6556;DHT22;3311;48.32423000;14.29074500;2023-03-19T13:49:33;15.40;50.20
6556;DHT22;3311;48.32423000;14.29074500;2023-03-19T13:54:44;15.50;49.50
6556;DHT22;3311;48.32423000;14.29074500;2023-03-19T13:57:21;15.50;49.40